Карточка аэропорта URKA

Внимание!
Информация на этой странице в стадии наполнения.
Если вы не увидели какой-то информации, или заметили неточность - пожалуйста сообщите нам!
Спасибо!
Команда RU-STAFF
Название аэропортаВитязево
Название аэропорта (англ.)Vityazevo
Превышение176 ft. (53.6 m.)
Координаты45°0.13200000000012', 37°20.832'
Высота перехода4000 ft
Эшелон переходаFL50 (QNH >= 1013); FL60 (QNH 977-1012); FL70 (QNH < 977)
Коды ответчика1040-1047
Зона ОрВДРостов-на-Дону РПИ (URRV)
Данные METARURKA 152200Z 15004MPS CAVOK 19/18 Q1006 R21/150065 TEMPO 2000 TSRA BKN006 BKN020CB RMK QFE749/0999
Проноз погоды (TAF)URKA 151956Z 1521/1621 20003G08MPS 9999 SCT020CB TEMPO 1521/1524 -SHRA TEMPO 1600/1606 3000 -TSRA SCT011 BKN016CB TEMPO 1606/1618 21012G17MPS 6000 -TSRA BKN016CB
NOTAMshow/hide NOTAM
AWOS   TABLE

Информация о ВПП

ВПП Длина ВПП (м.) Покрытие Курс ВПП Частота ILS
042500Цементобетон36109.1
222500Цементобетон216 

Диспетчерские позиции

Позывной Наименование органа УВД Частота
URKAFM1119,0
URKA_R_APPАнапа-Круг118.7
URKA_GNDАнапа-Руление119.0
URKA_TWRАнапа-Старт119.8



Спутниковое изображение